sensor_id;sensor_type;location;lat;lon;timestamp;P1;durP1;ratioP1;P2;durP2;ratioP2
20734;SDS011;10528;52.124;5.196;2023-03-23T00:01:12;9.95;;;4.75;;
20734;SDS011;10528;52.124;5.196;2023-03-23T00:03:45;7.05;;;4.00;;
20734;SDS011;10528;52.124;5.196;2023-03-23T00:06:13;6.38;;;3.67;;
20734;SDS011;10528;52.124;5.196;2023-03-23T00:08:43;10.75;;;4.10;;
20734;SDS011;10528;52.124;5.196;2023-03-23T00:11:19;8.15;;;3.55;;
20734;SDS011;10528;52.124;5.196;2023-03-23T00:13:48;10.30;;;4.03;;
20734;SDS011;10528;52.124;5.196;2023-03-23T00:16:19;7.00;;;3.72;;
20734;SDS011;10528;52.124;5.196;2023-03-23T00:18:56;6.65;;;3.95;;
20734;SDS011;10528;52.124;5.196;2023-03-23T00:21:28;7.82;;;3.70;;
20734;SDS011;10528;52.124;5.196;2023-03-23T00:24:13;6.25;;;3.88;;
20734;SDS011;10528;52.124;5.196;2023-03-23T00:26:44;8.20;;;3.90;;
20734;SDS011;10528;52.124;5.196;2023-03-23T00:29:14;8.07;;;3.75;;
20734;SDS011;10528;52.124;5.196;2023-03-23T00:31:49;7.43;;;3.38;;
20734;SDS011;10528;52.124;5.196;2023-03-23T00:34:20;5.68;;;3.63;;
20734;SDS011;10528;52.124;5.196;2023-03-23T00:36:53;9.02;;;3.70;;
20734;SDS011;10528;52.124;5.196;2023-03-23T00:39:22;5.95;;;3.28;;
20734;SDS011;10528;52.124;5.196;2023-03-23T00:41:50;7.00;;;3.75;;
20734;SDS011;10528;52.124;5.196;2023-03-23T00:44:17;8.70;;;3.85;;
20734;SDS011;10528;52.124;5.196;2023-03-23T00:46:43;6.90;;;3.20;;
20734;SDS011;10528;52.124;5.196;2023-03-23T00:49:11;6.20;;;3.05;;
20734;SDS011;10528;52.124;5.196;2023-03-23T00:51:39;7.70;;;3.33;;
20734;SDS011;10528;52.124;5.196;2023-03-23T00:54:07;6.65;;;3.55;;
20734;SDS011;10528;52.124;5.196;2023-03-23T00:56:33;6.10;;;3.20;;
20734;SDS011;10528;52.124;5.196;2023-03-23T00:59:00;6.55;;;3.13;;
20734;SDS011;10528;52.124;5.196;2023-03-23T01:01:27;5.78;;;2.78;;
20734;SDS011;10528;52.124;5.196;2023-03-23T01:03:53;4.95;;;2.85;;
20734;SDS011;10528;52.124;5.196;2023-03-23T01:06:26;5.75;;;3.00;;
20734;SDS011;10528;52.124;5.196;2023-03-23T01:08:53;6.18;;;2.70;;
20734;SDS011;10528;52.124;5.196;2023-03-23T01:11:23;7.97;;;2.50;;
20734;SDS011;10528;52.124;5.196;2023-03-23T01:13:50;5.68;;;2.45;;
20734;SDS011;10528;52.124;5.196;2023-03-23T01:16:19;6.60;;;3.13;;
20734;SDS011;10528;52.124;5.196;2023-03-23T01:18:45;5.75;;;2.72;;
20734;SDS011;10528;52.124;5.196;2023-03-23T01:21:12;5.55;;;2.67;;
20734;SDS011;10528;52.124;5.196;2023-03-23T01:23:41;5.43;;;2.40;;
20734;SDS011;10528;52.124;5.196;2023-03-23T01:26:14;5.10;;;3.15;;
20734;SDS011;10528;52.124;5.196;2023-03-23T01:28:45;5.53;;;2.53;;
20734;SDS011;10528;52.124;5.196;2023-03-23T01:31:13;4.75;;;2.70;;
20734;SDS011;10528;52.124;5.196;2023-03-23T01:33:43;5.60;;;2.72;;
20734;SDS011;10528;52.124;5.196;2023-03-23T01:36:11;6.10;;;3.00;;
20734;SDS011;10528;52.124;5.196;2023-03-23T01:38:42;6.68;;;3.17;;
20734;SDS011;10528;52.124;5.196;2023-03-23T01:41:10;5.40;;;2.80;;
20734;SDS011;10528;52.124;5.196;2023-03-23T01:46:25;7.35;;;2.53;;
20734;SDS011;10528;52.124;5.196;2023-03-23T01:48:51;6.35;;;2.90;;
20734;SDS011;10528;52.124;5.196;2023-03-23T01:51:19;4.15;;;3.00;;
20734;SDS011;10528;52.124;5.196;2023-03-23T01:53:54;8.05;;;3.20;;
20734;SDS011;10528;52.124;5.196;2023-03-23T01:56:26;7.15;;;2.83;;
20734;SDS011;10528;52.124;5.196;2023-03-23T01:58:59;4.35;;;2.60;;
20734;SDS011;10528;52.124;5.196;2023-03-23T02:01:25;5.75;;;2.83;;
20734;SDS011;10528;52.124;5.196;2023-03-23T02:03:53;5.63;;;2.90;;
20734;SDS011;10528;52.124;5.196;2023-03-23T02:06:23;3.55;;;2.45;;
20734;SDS011;10528;52.124;5.196;2023-03-23T02:09:06;3.83;;;2.50;;
20734;SDS011;10528;52.124;5.196;2023-03-23T02:11:33;5.57;;;2.70;;
20734;SDS011;10528;52.124;5.196;2023-03-23T02:14:00;4.93;;;2.97;;
20734;SDS011;10528;52.124;5.196;2023-03-23T02:25:23;6.40;;;2.42;;
20734;SDS011;10528;52.124;5.196;2023-03-23T02:31:47;5.43;;;2.50;;
20734;SDS011;10528;52.124;5.196;2023-03-23T02:34:52;4.93;;;2.45;;
20734;SDS011;10528;52.124;5.196;2023-03-23T02:37:28;3.75;;;2.60;;
20734;SDS011;10528;52.124;5.196;2023-03-23T02:40:22;5.20;;;2.70;;
20734;SDS011;10528;52.124;5.196;2023-03-23T02:42:56;5.82;;;2.55;;
20734;SDS011;10528;52.124;5.196;2023-03-23T02:45:25;3.80;;;2.38;;
20734;SDS011;10528;52.124;5.196;2023-03-23T02:47:55;4.90;;;2.50;;
20734;SDS011;10528;52.124;5.196;2023-03-23T02:50:22;4.50;;;2.33;;
20734;SDS011;10528;52.124;5.196;2023-03-23T02:52:53;6.78;;;2.42;;
20734;SDS011;10528;52.124;5.196;2023-03-23T02:55:21;6.63;;;2.50;;
20734;SDS011;10528;52.124;5.196;2023-03-23T02:57:51;5.60;;;2.28;;
20734;SDS011;10528;52.124;5.196;2023-03-23T03:00:20;4.15;;;1.88;;
20734;SDS011;10528;52.124;5.196;2023-03-23T03:02:50;4.55;;;2.45;;
20734;SDS011;10528;52.124;5.196;2023-03-23T03:07:59;3.85;;;2.17;;
20734;SDS011;10528;52.124;5.196;2023-03-23T03:14:11;5.15;;;2.00;;
20734;SDS011;10528;52.124;5.196;2023-03-23T03:16:27;4.85;;;1.98;;
20734;SDS011;10528;52.124;5.196;2023-03-23T03:19:27;4.70;;;1.80;;
20734;SDS011;10528;52.124;5.196;2023-03-23T03:22:00;6.28;;;1.98;;
20734;SDS011;10528;52.124;5.196;2023-03-23T03:24:39;6.47;;;1.90;;
20734;SDS011;10528;52.124;5.196;2023-03-23T03:27:10;9.98;;;1.85;;
20734;SDS011;10528;52.124;5.196;2023-03-23T03:29:53;4.65;;;1.60;;
20734;SDS011;10528;52.124;5.196;2023-03-23T03:32:26;5.72;;;1.83;;
20734;SDS011;10528;52.124;5.196;2023-03-23T03:35:06;5.80;;;1.80;;
20734;SDS011;10528;52.124;5.196;2023-03-23T03:37:33;5.95;;;1.58;;
20734;SDS011;10528;52.124;5.196;2023-03-23T03:40:04;3.20;;;1.50;;
20734;SDS011;10528;52.124;5.196;2023-03-23T03:42:40;4.15;;;1.40;;
20734;SDS011;10528;52.124;5.196;2023-03-23T03:45:09;4.03;;;1.88;;
20734;SDS011;10528;52.124;5.196;2023-03-23T03:47:38;4.05;;;1.65;;
20734;SDS011;10528;52.124;5.196;2023-03-23T03:50:05;6.47;;;1.88;;
20734;SDS011;10528;52.124;5.196;2023-03-23T03:52:32;3.35;;;1.80;;
20734;SDS011;10528;52.124;5.196;2023-03-23T03:54:58;5.18;;;1.70;;
20734;SDS011;10528;52.124;5.196;2023-03-23T03:57:25;6.35;;;1.85;;
20734;SDS011;10528;52.124;5.196;2023-03-23T04:00:04;5.93;;;1.65;;
20734;SDS011;10528;52.124;5.196;2023-03-23T04:02:43;4.43;;;1.50;;
20734;SDS011;10528;52.124;5.196;2023-03-23T04:05:38;4.75;;;2.03;;
20734;SDS011;10528;52.124;5.196;2023-03-23T04:08:05;4.53;;;1.30;;
20734;SDS011;10528;52.124;5.196;2023-03-23T04:10:31;4.85;;;1.83;;
20734;SDS011;10528;52.124;5.196;2023-03-23T04:12:59;5.45;;;1.50;;
20734;SDS011;10528;52.124;5.196;2023-03-23T04:15:48;3.20;;;1.45;;
20734;SDS011;10528;52.124;5.196;2023-03-23T04:18:15;7.28;;;1.52;;
20734;SDS011;10528;52.124;5.196;2023-03-23T04:20:45;4.28;;;1.58;;
20734;SDS011;10528;52.124;5.196;2023-03-23T04:23:15;6.38;;;1.52;;
20734;SDS011;10528;52.124;5.196;2023-03-23T04:25:48;5.90;;;1.52;;
20734;SDS011;10528;52.124;5.196;2023-03-23T04:28:16;5.47;;;1.70;;
20734;SDS011;10528;52.124;5.196;2023-03-23T04:30:58;7.82;;;1.77;;
20734;SDS011;10528;52.124;5.196;2023-03-23T04:33:25;5.60;;;1.50;;
20734;SDS011;10528;52.124;5.196;2023-03-23T04:35:56;7.50;;;1.35;;
20734;SDS011;10528;52.124;5.196;2023-03-23T04:38:52;7.22;;;1.52;;
20734;SDS011;10528;52.124;5.196;2023-03-23T04:41:21;6.15;;;1.75;;
20734;SDS011;10528;52.124;5.196;2023-03-23T04:43:59;5.10;;;1.73;;
20734;SDS011;10528;52.124;5.196;2023-03-23T04:46:39;5.85;;;1.20;;
20734;SDS011;10528;52.124;5.196;2023-03-23T04:49:08;6.70;;;1.63;;
20734;SDS011;10528;52.124;5.196;2023-03-23T04:51:36;5.82;;;1.42;;
20734;SDS011;10528;52.124;5.196;2023-03-23T04:54:15;7.47;;;1.38;;
20734;SDS011;10528;52.124;5.196;2023-03-23T04:56:46;6.32;;;1.80;;
20734;SDS011;10528;52.124;5.196;2023-03-23T04:59:14;5.97;;;1.55;;
20734;SDS011;10528;52.124;5.196;2023-03-23T05:02:05;6.43;;;1.80;;
20734;SDS011;10528;52.124;5.196;2023-03-23T05:04:31;9.27;;;1.58;;
20734;SDS011;10528;52.124;5.196;2023-03-23T05:07:07;7.70;;;1.40;;
20734;SDS011;10528;52.124;5.196;2023-03-23T05:09:41;8.00;;;1.42;;
20734;SDS011;10528;52.124;5.196;2023-03-23T05:12:07;6.88;;;1.70;;
20734;SDS011;10528;52.124;5.196;2023-03-23T05:14:44;7.63;;;2.15;;
20734;SDS011;10528;52.124;5.196;2023-03-23T05:17:14;6.50;;;1.60;;
20734;SDS011;10528;52.124;5.196;2023-03-23T05:19:43;7.40;;;1.70;;
20734;SDS011;10528;52.124;5.196;2023-03-23T05:22:28;9.60;;;2.00;;
20734;SDS011;10528;52.124;5.196;2023-03-23T05:24:58;7.90;;;1.77;;
20734;SDS011;10528;52.124;5.196;2023-03-23T05:27:28;6.25;;;1.25;;
20734;SDS011;10528;52.124;5.196;2023-03-23T05:29:59;6.03;;;1.60;;
20734;SDS011;10528;52.124;5.196;2023-03-23T05:32:27;7.55;;;1.85;;
20734;SDS011;10528;52.124;5.196;2023-03-23T05:34:55;7.40;;;1.80;;
20734;SDS011;10528;52.124;5.196;2023-03-23T05:37:23;10.38;;;1.80;;
20734;SDS011;10528;52.124;5.196;2023-03-23T05:39:57;8.80;;;1.90;;
20734;SDS011;10528;52.124;5.196;2023-03-23T05:42:43;10.00;;;2.00;;
20734;SDS011;10528;52.124;5.196;2023-03-23T05:45:18;9.35;;;2.20;;
20734;SDS011;10528;52.124;5.196;2023-03-23T05:47:47;8.85;;;2.58;;
20734;SDS011;10528;52.124;5.196;2023-03-23T05:50:17;7.72;;;2.42;;
20734;SDS011;10528;52.124;5.196;2023-03-23T05:52:44;8.93;;;2.60;;
20734;SDS011;10528;52.124;5.196;2023-03-23T05:55:13;7.63;;;2.22;;
20734;SDS011;10528;52.124;5.196;2023-03-23T05:57:41;9.50;;;2.88;;
20734;SDS011;10528;52.124;5.196;2023-03-23T06:00:30;11.00;;;2.50;;
20734;SDS011;10528;52.124;5.196;2023-03-23T06:03:09;8.80;;;2.50;;
20734;SDS011;10528;52.124;5.196;2023-03-23T06:05:44;7.60;;;2.20;;
20734;SDS011;10528;52.124;5.196;2023-03-23T06:08:13;9.50;;;2.30;;
20734;SDS011;10528;52.124;5.196;2023-03-23T06:10:39;9.57;;;2.42;;
20734;SDS011;10528;52.124;5.196;2023-03-23T06:13:05;7.55;;;2.05;;
20734;SDS011;10528;52.124;5.196;2023-03-23T06:15:37;10.02;;;2.65;;
20734;SDS011;10528;52.124;5.196;2023-03-23T06:18:19;7.07;;;2.00;;
20734;SDS011;10528;52.124;5.196;2023-03-23T06:21:23;6.35;;;1.90;;
20734;SDS011;10528;52.124;5.196;2023-03-23T06:23:55;8.27;;;2.35;;
20734;SDS011;10528;52.124;5.196;2023-03-23T06:26:28;8.13;;;2.08;;
20734;SDS011;10528;52.124;5.196;2023-03-23T06:29:02;9.57;;;2.25;;
20734;SDS011;10528;52.124;5.196;2023-03-23T06:31:40;6.85;;;2.00;;
20734;SDS011;10528;52.124;5.196;2023-03-23T06:34:10;6.20;;;2.15;;
20734;SDS011;10528;52.124;5.196;2023-03-23T06:37:15;8.88;;;2.15;;
20734;SDS011;10528;52.124;5.196;2023-03-23T06:39:59;11.48;;;2.60;;
20734;SDS011;10528;52.124;5.196;2023-03-23T06:42:34;8.27;;;2.42;;
20734;SDS011;10528;52.124;5.196;2023-03-23T06:45:29;7.10;;;2.15;;
20734;SDS011;10528;52.124;5.196;2023-03-23T06:48:16;8.07;;;2.13;;
20734;SDS011;10528;52.124;5.196;2023-03-23T06:50:43;7.45;;;2.13;;
20734;SDS011;10528;52.124;5.196;2023-03-23T06:53:12;9.45;;;2.33;;
20734;SDS011;10528;52.124;5.196;2023-03-23T06:55:38;7.40;;;2.13;;
20734;SDS011;10528;52.124;5.196;2023-03-23T06:58:05;6.47;;;2.10;;
20734;SDS011;10528;52.124;5.196;2023-03-23T07:00:31;16.88;;;3.45;;
20734;SDS011;10528;52.124;5.196;2023-03-23T07:02:58;8.00;;;2.38;;
20734;SDS011;10528;52.124;5.196;2023-03-23T07:05:25;7.82;;;2.17;;
20734;SDS011;10528;52.124;5.196;2023-03-23T07:07:51;7.90;;;2.38;;
20734;SDS011;10528;52.124;5.196;2023-03-23T07:10:28;7.40;;;2.40;;
20734;SDS011;10528;52.124;5.196;2023-03-23T07:12:55;10.15;;;2.20;;
20734;SDS011;10528;52.124;5.196;2023-03-23T07:15:22;6.63;;;2.10;;
20734;SDS011;10528;52.124;5.196;2023-03-23T07:17:50;7.57;;;2.30;;
20734;SDS011;10528;52.124;5.196;2023-03-23T07:20:43;11.57;;;2.33;;
20734;SDS011;10528;52.124;5.196;2023-03-23T07:23:14;7.80;;;1.80;;
20734;SDS011;10528;52.124;5.196;2023-03-23T07:25:45;11.88;;;2.85;;
20734;SDS011;10528;52.124;5.196;2023-03-23T07:28:18;7.68;;;2.38;;
20734;SDS011;10528;52.124;5.196;2023-03-23T07:30:45;8.75;;;2.15;;
20734;SDS011;10528;52.124;5.196;2023-03-23T07:33:11;7.47;;;1.95;;
20734;SDS011;10528;52.124;5.196;2023-03-23T07:35:37;10.95;;;2.70;;
20734;SDS011;10528;52.124;5.196;2023-03-23T07:38:07;8.57;;;1.83;;
20734;SDS011;10528;52.124;5.196;2023-03-23T07:40:34;11.98;;;2.35;;
20734;SDS011;10528;52.124;5.196;2023-03-23T07:43:06;7.55;;;2.17;;
20734;SDS011;10528;52.124;5.196;2023-03-23T07:45:59;9.38;;;2.03;;
20734;SDS011;10528;52.124;5.196;2023-03-23T07:48:33;10.20;;;1.88;;
20734;SDS011;10528;52.124;5.196;2023-03-23T07:50:59;8.30;;;1.88;;
20734;SDS011;10528;52.124;5.196;2023-03-23T07:53:28;10.30;;;2.15;;
20734;SDS011;10528;52.124;5.196;2023-03-23T07:56:05;10.68;;;1.90;;
20734;SDS011;10528;52.124;5.196;2023-03-23T07:58:46;7.28;;;2.13;;
20734;SDS011;10528;52.124;5.196;2023-03-23T08:01:12;8.55;;;2.00;;
20734;SDS011;10528;52.124;5.196;2023-03-23T08:03:41;8.43;;;1.98;;
20734;SDS011;10528;52.124;5.196;2023-03-23T08:06:31;9.35;;;1.98;;
20734;SDS011;10528;52.124;5.196;2023-03-23T08:09:17;5.60;;;1.75;;
20734;SDS011;10528;52.124;5.196;2023-03-23T08:12:18;6.70;;;1.83;;
20734;SDS011;10528;52.124;5.196;2023-03-23T08:15:16;5.50;;;1.70;;
20734;SDS011;10528;52.124;5.196;2023-03-23T08:18:12;5.90;;;1.98;;
20734;SDS011;10528;52.124;5.196;2023-03-23T08:20:44;6.22;;;2.10;;
20734;SDS011;10528;52.124;5.196;2023-03-23T08:23:29;5.85;;;2.22;;
20734;SDS011;10528;52.124;5.196;2023-03-23T08:26:16;8.02;;;1.95;;
20734;SDS011;10528;52.124;5.196;2023-03-23T08:28:54;6.60;;;1.83;;
20734;SDS011;10528;52.124;5.196;2023-03-23T08:31:20;10.25;;;2.53;;
20734;SDS011;10528;52.124;5.196;2023-03-23T08:33:58;7.47;;;2.22;;
20734;SDS011;10528;52.124;5.196;2023-03-23T08:36:36;9.00;;;2.30;;
20734;SDS011;10528;52.124;5.196;2023-03-23T08:39:12;6.30;;;2.38;;
20734;SDS011;10528;52.124;5.196;2023-03-23T08:41:58;8.20;;;2.60;;
20734;SDS011;10528;52.124;5.196;2023-03-23T08:44:47;9.02;;;2.00;;
20734;SDS011;10528;52.124;5.196;2023-03-23T08:47:29;9.20;;;2.63;;
20734;SDS011;10528;52.124;5.196;2023-03-23T08:50:15;10.25;;;2.28;;
20734;SDS011;10528;52.124;5.196;2023-03-23T08:52:43;8.18;;;2.63;;
20734;SDS011;10528;52.124;5.196;2023-03-23T08:55:28;8.07;;;2.38;;
20734;SDS011;10528;52.124;5.196;2023-03-23T08:58:09;6.57;;;1.95;;
20734;SDS011;10528;52.124;5.196;2023-03-23T09:00:54;9.75;;;2.65;;
20734;SDS011;10528;52.124;5.196;2023-03-23T09:03:52;7.35;;;2.50;;
20734;SDS011;10528;52.124;5.196;2023-03-23T09:06:38;6.90;;;2.38;;
20734;SDS011;10528;52.124;5.196;2023-03-23T09:09:04;13.48;;;2.58;;
20734;SDS011;10528;52.124;5.196;2023-03-23T09:11:34;10.38;;;2.63;;
20734;SDS011;10528;52.124;5.196;2023-03-23T09:14:02;10.05;;;2.40;;
20734;SDS011;10528;52.124;5.196;2023-03-23T09:16:31;10.57;;;2.40;;
20734;SDS011;10528;52.124;5.196;2023-03-23T09:18:58;7.15;;;1.98;;
20734;SDS011;10528;52.124;5.196;2023-03-23T09:21:26;9.68;;;2.15;;
20734;SDS011;10528;52.124;5.196;2023-03-23T09:23:53;10.95;;;2.38;;
20734;SDS011;10528;52.124;5.196;2023-03-23T09:26:23;10.35;;;2.55;;
20734;SDS011;10528;52.124;5.196;2023-03-23T09:28:51;12.88;;;2.90;;
20734;SDS011;10528;52.124;5.196;2023-03-23T09:31:17;13.70;;;2.15;;
20734;SDS011;10528;52.124;5.196;2023-03-23T09:33:47;9.45;;;2.63;;
20734;SDS011;10528;52.124;5.196;2023-03-23T09:36:17;11.00;;;2.75;;
20734;SDS011;10528;52.124;5.196;2023-03-23T09:38:46;14.68;;;2.67;;
20734;SDS011;10528;52.124;5.196;2023-03-23T09:43:43;9.80;;;2.47;;
20734;SDS011;10528;52.124;5.196;2023-03-23T09:48:53;11.93;;;2.22;;
20734;SDS011;10528;52.124;5.196;2023-03-23T09:54:10;8.02;;;2.10;;
20734;SDS011;10528;52.124;5.196;2023-03-23T09:56:52;16.58;;;3.38;;
20734;SDS011;10528;52.124;5.196;2023-03-23T09:59:30;5.97;;;1.65;;
20734;SDS011;10528;52.124;5.196;2023-03-23T10:02:13;10.32;;;2.28;;
20734;SDS011;10528;52.124;5.196;2023-03-23T10:05:22;9.60;;;2.58;;
20734;SDS011;10528;52.124;5.196;2023-03-23T10:08:00;8.73;;;2.42;;
20734;SDS011;10528;52.124;5.196;2023-03-23T10:16:21;9.43;;;2.47;;
20734;SDS011;10528;52.124;5.196;2023-03-23T10:19:04;9.52;;;2.08;;
20734;SDS011;10528;52.124;5.196;2023-03-23T10:21:47;9.13;;;2.72;;
20734;SDS011;10528;52.124;5.196;2023-03-23T10:24:19;9.05;;;1.88;;
20734;SDS011;10528;52.124;5.196;2023-03-23T10:26:58;9.40;;;1.98;;
20734;SDS011;10528;52.124;5.196;2023-03-23T10:30:20;11.48;;;2.10;;
20734;SDS011;10528;52.124;5.196;2023-03-23T10:32:48;7.35;;;1.85;;
20734;SDS011;10528;52.124;5.196;2023-03-23T10:35:19;12.23;;;2.58;;
20734;SDS011;10528;52.124;5.196;2023-03-23T10:37:56;11.10;;;2.28;;
20734;SDS011;10528;52.124;5.196;2023-03-23T10:40:28;9.93;;;2.10;;
20734;SDS011;10528;52.124;5.196;2023-03-23T10:43:00;11.30;;;2.45;;
20734;SDS011;10528;52.124;5.196;2023-03-23T10:45:27;10.77;;;2.42;;
20734;SDS011;10528;52.124;5.196;2023-03-23T10:50:54;11.43;;;2.10;;
20734;SDS011;10528;52.124;5.196;2023-03-23T10:53:28;10.18;;;2.25;;
20734;SDS011;10528;52.124;5.196;2023-03-23T10:56:02;10.73;;;2.00;;
20734;SDS011;10528;52.124;5.196;2023-03-23T10:58:31;10.80;;;3.08;;
20734;SDS011;10528;52.124;5.196;2023-03-23T11:01:01;9.85;;;2.30;;
20734;SDS011;10528;52.124;5.196;2023-03-23T11:06:10;12.32;;;2.13;;
20734;SDS011;10528;52.124;5.196;2023-03-23T11:08:52;10.90;;;2.40;;
20734;SDS011;10528;52.124;5.196;2023-03-23T11:11:26;10.60;;;2.22;;
20734;SDS011;10528;52.124;5.196;2023-03-23T11:14:15;9.38;;;2.08;;
20734;SDS011;10528;52.124;5.196;2023-03-23T11:16:51;11.85;;;2.65;;
20734;SDS011;10528;52.124;5.196;2023-03-23T11:21:54;10.23;;;2.03;;
20734;SDS011;10528;52.124;5.196;2023-03-23T11:24:41;10.75;;;2.10;;
20734;SDS011;10528;52.124;5.196;2023-03-23T11:27:13;11.25;;;2.40;;
20734;SDS011;10528;52.124;5.196;2023-03-23T11:32:44;11.60;;;2.20;;
20734;SDS011;10528;52.124;5.196;2023-03-23T11:35:16;10.55;;;2.65;;
20734;SDS011;10528;52.124;5.196;2023-03-23T11:37:47;7.13;;;1.60;;
20734;SDS011;10528;52.124;5.196;2023-03-23T11:40:24;9.93;;;1.85;;
20734;SDS011;10528;52.124;5.196;2023-03-23T11:43:08;7.25;;;2.13;;
20734;SDS011;10528;52.124;5.196;2023-03-23T11:45:41;9.60;;;2.13;;
20734;SDS011;10528;52.124;5.196;2023-03-23T11:54:09;8.95;;;2.47;;
20734;SDS011;10528;52.124;5.196;2023-03-23T11:57:09;7.57;;;1.90;;
20734;SDS011;10528;52.124;5.196;2023-03-23T11:59:38;11.85;;;2.22;;
20734;SDS011;10528;52.124;5.196;2023-03-23T12:10:34;11.85;;;2.20;;
20734;SDS011;10528;52.124;5.196;2023-03-23T12:16:20;9.90;;;2.00;;
20734;SDS011;10528;52.124;5.196;2023-03-23T12:22:02;14.70;;;2.25;;
20734;SDS011;10528;52.124;5.196;2023-03-23T12:27:51;12.02;;;2.13;;
20734;SDS011;10528;52.124;5.196;2023-03-23T12:30:53;6.97;;;1.73;;
20734;SDS011;10528;52.124;5.196;2023-03-23T12:36:36;10.02;;;2.53;;
20734;SDS011;10528;52.124;5.196;2023-03-23T12:39:39;10.52;;;2.03;;
20734;SDS011;10528;52.124;5.196;2023-03-23T12:48:43;9.63;;;1.95;;
20734;SDS011;10528;52.124;5.196;2023-03-23T12:58:12;12.63;;;2.05;;
20734;SDS011;10528;52.124;5.196;2023-03-23T13:00:56;5.65;;;1.52;;
20734;SDS011;10528;52.124;5.196;2023-03-23T13:03:33;8.60;;;1.55;;
20734;SDS011;10528;52.124;5.196;2023-03-23T13:06:33;10.50;;;1.98;;
20734;SDS011;10528;52.124;5.196;2023-03-23T13:09:15;7.53;;;1.92;;
20734;SDS011;10528;52.124;5.196;2023-03-23T13:11:51;9.07;;;2.03;;
20734;SDS011;10528;52.124;5.196;2023-03-23T13:14:27;7.00;;;1.65;;
20734;SDS011;10528;52.124;5.196;2023-03-23T13:20:15;8.35;;;1.60;;
20734;SDS011;10528;52.124;5.196;2023-03-23T13:26:13;9.02;;;1.73;;
20734;SDS011;10528;52.124;5.196;2023-03-23T13:31:33;6.22;;;1.45;;
20734;SDS011;10528;52.124;5.196;2023-03-23T13:34:18;6.85;;;1.58;;
20734;SDS011;10528;52.124;5.196;2023-03-23T13:39:30;8.27;;;1.70;;
20734;SDS011;10528;52.124;5.196;2023-03-23T13:49:58;10.00;;;1.83;;
20734;SDS011;10528;52.124;5.196;2023-03-23T13:52:37;6.63;;;1.48;;
20734;SDS011;10528;52.124;5.196;2023-03-23T14:03:15;11.07;;;1.85;;
20734;SDS011;10528;52.124;5.196;2023-03-23T14:10:54;7.78;;;1.35;;
20734;SDS011;10528;52.124;5.196;2023-03-23T14:16:44;4.95;;;1.10;;
20734;SDS011;10528;52.124;5.196;2023-03-23T14:19:24;5.95;;;1.55;;
20734;SDS011;10528;52.124;5.196;2023-03-23T14:21:58;6.53;;;1.27;;
20734;SDS011;10528;52.124;5.196;2023-03-23T14:24:27;7.63;;;1.50;;
20734;SDS011;10528;52.124;5.196;2023-03-23T14:27:11;7.63;;;1.90;;
20734;SDS011;10528;52.124;5.196;2023-03-23T14:29:41;6.72;;;1.63;;
20734;SDS011;10528;52.124;5.196;2023-03-23T14:32:18;5.05;;;1.38;;
20734;SDS011;10528;52.124;5.196;2023-03-23T14:34:51;8.68;;;1.75;;
20734;SDS011;10528;52.124;5.196;2023-03-23T14:37:18;8.98;;;1.92;;
20734;SDS011;10528;52.124;5.196;2023-03-23T14:39:47;8.68;;;2.00;;
20734;SDS011;10528;52.124;5.196;2023-03-23T14:42:19;7.90;;;2.00;;
20734;SDS011;10528;52.124;5.196;2023-03-23T14:44:57;8.35;;;1.92;;
20734;SDS011;10528;52.124;5.196;2023-03-23T14:47:26;10.45;;;1.90;;
20734;SDS011;10528;52.124;5.196;2023-03-23T14:49:58;10.95;;;1.92;;
20734;SDS011;10528;52.124;5.196;2023-03-23T14:52:32;7.85;;;1.77;;
20734;SDS011;10528;52.124;5.196;2023-03-23T14:55:11;11.02;;;2.30;;
20734;SDS011;10528;52.124;5.196;2023-03-23T14:57:46;11.55;;;1.73;;
20734;SDS011;10528;52.124;5.196;2023-03-23T15:02:47;12.15;;;2.63;;
20734;SDS011;10528;52.124;5.196;2023-03-23T15:05:40;8.38;;;2.10;;
20734;SDS011;10528;52.124;5.196;2023-03-23T15:08:32;7.35;;;1.83;;
20734;SDS011;10528;52.124;5.196;2023-03-23T15:14:08;10.02;;;2.00;;
20734;SDS011;10528;52.124;5.196;2023-03-23T15:16:48;9.10;;;1.77;;
20734;SDS011;10528;52.124;5.196;2023-03-23T15:19:28;10.15;;;2.03;;
20734;SDS011;10528;52.124;5.196;2023-03-23T15:22:05;6.90;;;1.50;;
20734;SDS011;10528;52.124;5.196;2023-03-23T15:25:01;12.43;;;2.28;;
20734;SDS011;10528;52.124;5.196;2023-03-23T15:28:06;12.93;;;2.30;;
20734;SDS011;10528;52.124;5.196;2023-03-23T15:30:51;8.68;;;2.47;;
20734;SDS011;10528;52.124;5.196;2023-03-23T15:33:23;9.82;;;1.90;;
20734;SDS011;10528;52.124;5.196;2023-03-23T15:35:53;9.52;;;1.60;;
20734;SDS011;10528;52.124;5.196;2023-03-23T15:38:21;9.52;;;2.13;;
20734;SDS011;10528;52.124;5.196;2023-03-23T15:40:58;6.35;;;1.70;;
20734;SDS011;10528;52.124;5.196;2023-03-23T15:43:48;10.02;;;2.53;;
20734;SDS011;10528;52.124;5.196;2023-03-23T15:49:30;8.73;;;1.85;;
20734;SDS011;10528;52.124;5.196;2023-03-23T15:51:39;12.50;;;1.80;;
20734;SDS011;10528;52.124;5.196;2023-03-23T15:54:07;9.30;;;1.90;;
20734;SDS011;10528;52.124;5.196;2023-03-23T15:56:39;8.02;;;2.03;;
20734;SDS011;10528;52.124;5.196;2023-03-23T15:59:07;9.73;;;1.83;;
20734;SDS011;10528;52.124;5.196;2023-03-23T16:01:35;6.95;;;1.40;;
20734;SDS011;10528;52.124;5.196;2023-03-23T16:06:40;11.30;;;2.08;;
20734;SDS011;10528;52.124;5.196;2023-03-23T16:09:12;9.10;;;1.80;;
20734;SDS011;10528;52.124;5.196;2023-03-23T16:11:42;8.05;;;1.85;;
20734;SDS011;10528;52.124;5.196;2023-03-23T16:14:09;11.65;;;2.28;;
20734;SDS011;10528;52.124;5.196;2023-03-23T16:16:46;9.30;;;2.22;;
20734;SDS011;10528;52.124;5.196;2023-03-23T16:19:16;9.18;;;1.88;;
20734;SDS011;10528;52.124;5.196;2023-03-23T16:21:45;10.15;;;2.20;;
20734;SDS011;10528;52.124;5.196;2023-03-23T16:24:12;11.30;;;3.00;;
20734;SDS011;10528;52.124;5.196;2023-03-23T16:26:39;9.00;;;2.05;;
20734;SDS011;10528;52.124;5.196;2023-03-23T16:29:13;10.73;;;2.38;;
20734;SDS011;10528;52.124;5.196;2023-03-23T16:31:59;9.93;;;2.45;;
20734;SDS011;10528;52.124;5.196;2023-03-23T16:34:26;14.50;;;2.30;;
20734;SDS011;10528;52.124;5.196;2023-03-23T16:36:55;7.90;;;1.90;;
20734;SDS011;10528;52.124;5.196;2023-03-23T16:39:22;11.55;;;2.63;;
20734;SDS011;10528;52.124;5.196;2023-03-23T16:41:48;8.95;;;2.13;;
20734;SDS011;10528;52.124;5.196;2023-03-23T16:44:16;10.73;;;2.30;;
20734;SDS011;10528;52.124;5.196;2023-03-23T16:46:42;7.22;;;1.67;;
20734;SDS011;10528;52.124;5.196;2023-03-23T16:49:09;7.63;;;2.20;;
20734;SDS011;10528;52.124;5.196;2023-03-23T16:51:36;7.20;;;2.25;;
20734;SDS011;10528;52.124;5.196;2023-03-23T16:54:03;11.30;;;2.33;;
20734;SDS011;10528;52.124;5.196;2023-03-23T16:56:30;8.45;;;2.40;;
20734;SDS011;10528;52.124;5.196;2023-03-23T16:58:57;10.93;;;2.13;;
20734;SDS011;10528;52.124;5.196;2023-03-23T17:01:24;9.98;;;2.17;;
20734;SDS011;10528;52.124;5.196;2023-03-23T17:03:51;12.10;;;2.50;;
20734;SDS011;10528;52.124;5.196;2023-03-23T17:06:19;9.13;;;2.10;;
20734;SDS011;10528;52.124;5.196;2023-03-23T17:08:46;10.20;;;2.72;;
20734;SDS011;10528;52.124;5.196;2023-03-23T17:11:13;7.82;;;1.95;;
20734;SDS011;10528;52.124;5.196;2023-03-23T17:13:40;10.38;;;1.92;;
20734;SDS011;10528;52.124;5.196;2023-03-23T17:16:07;7.55;;;1.98;;
20734;SDS011;10528;52.124;5.196;2023-03-23T17:18:34;9.88;;;2.00;;
20734;SDS011;10528;52.124;5.196;2023-03-23T17:21:01;12.32;;;2.63;;
20734;SDS011;10528;52.124;5.196;2023-03-23T17:23:28;7.93;;;2.17;;
20734;SDS011;10528;52.124;5.196;2023-03-23T17:25:56;8.10;;;1.92;;
20734;SDS011;10528;52.124;5.196;2023-03-23T17:28:23;10.55;;;2.40;;
20734;SDS011;10528;52.124;5.196;2023-03-23T17:30:50;7.10;;;2.20;;
20734;SDS011;10528;52.124;5.196;2023-03-23T17:33:18;12.27;;;2.20;;
20734;SDS011;10528;52.124;5.196;2023-03-23T17:35:45;8.88;;;2.15;;
20734;SDS011;10528;52.124;5.196;2023-03-23T17:38:16;9.57;;;2.30;;
20734;SDS011;10528;52.124;5.196;2023-03-23T17:40:43;7.72;;;1.85;;